This is the latest recevied weather packets stored in our database for station/object K5WNG. If no packets are shown the sender has not sent any weather packets the latest 10 day(s).
| Time | Temp. | Humidity | Pressure | Rain* | Wind** | Luminosity | Snow |
|---|---|---|---|---|---|---|---|
| 1777779318 | 13.89° C | 78% | 1021.2 hPa | 0 mm | - | 0 W/m² | - |
| 1777779022 | 14.44° C | 77% | 1021.1 hPa | 0 mm | - | 0 W/m² | - |
| 1777778718 | 14.44° C | 77% | 1021.1 hPa | 0 mm | - | 0 W/m² | - |
| 1777778421 | 14.44° C | 76% | 1021.1 hPa | 0 mm | - | 0 W/m² | - |
| 1777778121 | 14.44° C | 76% | 1021 hPa | 0 mm | - | 0 W/m² | - |
| 1777777818 | 14.44° C | 75% | 1021 hPa | 0 mm | - | 0 W/m² | - |
| 1777777521 | 14.44° C | 75% | 1020.9 hPa | 0 mm | - | 0 W/m² | - |
| 1777777218 | 14.44° C | 75% | 1020.9 hPa | 0 mm | - | 0 W/m² | - |
| 1777776919 | 15° C | 76% | 1021 hPa | 0 mm | - | 0 W/m² | - |
| 1777776622 | 15° C | 76% | 1020.9 hPa | 0 mm | - | 0 W/m² | - |
| 1777776319 | 15° C | 75% | 1020.9 hPa | 0 mm | - | 0 W/m² | - |
| 1777776019 | 15° C | 74% | 1020.7 hPa | 0 mm | - | 0 W/m² | - |
| 1777775716 | 15.56° C | 73% | 1020.5 hPa | 0 mm | - | 0 W/m² | - |
| 1777775416 | 15.56° C | 72% | 1020.4 hPa | 0 mm | - | 0 W/m² | - |
| 1777775119 | 15.56° C | 71% | 1020.4 hPa | 0 mm | - | 0 W/m² | - |
| 1777774516 | 16.11° C | 69% | 1020.2 hPa | 0 mm | - | 0 W/m² | - |
| 1777774216 | 16.11° C | 67% | 1020.2 hPa | 0 mm | - | 0 W/m² | - |
| 1777773624 | 16.67° C | 66% | 1020.2 hPa | 0 mm | - | 0 W/m² | - |
| 1777773016 | 16.67° C | 65% | 1020.1 hPa | 0 mm | - | 0 W/m² | - |
| 1777772116 | 17.78° C | 63% | 1020.2 hPa | 0 mm | - | 0 W/m² | - |
| 1777771818 | 17.78° C | 62% | 1020.1 hPa | 0 mm | - | 0 W/m² | - |
| 1777770617 | 18.89° C | 58% | 1019.8 hPa | 0 mm | - | 5 W/m² | - |
| 1777768216 | 21.67° C | 50% | 1019.7 hPa | 0 mm | - | 34 W/m² | - |
| 1777767919 | 21.67° C | 49% | 1019.7 hPa | 0 mm | - | 37 W/m² | - |
| 1777767616 | 22.22° C | 48% | 1019.6 hPa | 0 mm | - | 41 W/m² | - |
* Rain latest hour (hover to see other rain measurements)
** Current wind speed in m/s (hover to see current wind gust speed)